Time;durP1;ratioP1;P1;durP2;ratioP2;P2;SDS_P1;SDS_P2;PMS_P1;PMS_P2;Temp;Humidity;BMP_temperature;BMP_pressure;BME280_temperature;BME280_humidity;BME280_pressure;Samples;Min_cycle;Max_cycle;Signal;HPM_P1;HPM_P2
2021/09/07 00:00:33;;;;;;;20.60;10.60;;;;;;;11.17;62.06;99886.02;234070;1199;139768;-58
2021/09/07 00:05:37;;;;;;;15.90;9.70;;;;;;;11.11;62.18;99885.23;234118;1201;140299;-61
2021/09/07 00:10:40;;;;;;;17.00;10.50;;;;;;;11.04;62.28;99885.05;233922;1199;139273;-66
2021/09/07 00:15:43;;;;;;;18.20;10.00;;;;;;;11.05;62.55;99880.95;233621;1199;139393;-61
2021/09/07 00:20:47;;;;;;;15.60;10.00;;;;;;;11.05;62.75;99880.92;234101;1199;138974;-63
2021/09/07 00:25:51;;;;;;;17.60;10.50;;;;;;;11.08;62.59;99878.48;234102;1199;139258;-63
2021/09/07 00:30:54;;;;;;;17.60;10.70;;;;;;;11.06;62.96;99873.59;233638;1201;139159;-62
2021/09/07 00:35:57;;;;;;;14.30;9.50;;;;;;;11.05;62.67;99874.39;233710;1201;139199;-64
2021/09/07 00:41:00;;;;;;;19.60;10.30;;;;;;;11.01;62.93;99870.48;233675;1200;140286;-64
2021/09/07 00:46:03;;;;;;;20.80;10.70;;;;;;;10.95;62.97;99864.56;234073;1199;139166;-62
2021/09/07 00:51:06;;;;;;;16.00;9.70;;;;;;;10.91;62.86;99865.11;234047;1199;138839;-63
2021/09/07 00:56:10;;;;;;;19.00;9.60;;;;;;;10.87;63.17;99867.45;233843;1200;139908;-64
2021/09/07 01:01:16;;;;;;;18.10;10.10;;;;;;;10.85;63.16;99865.45;233987;1200;139788;-63
2021/09/07 01:06:20;;;;;;;19.40;10.30;;;;;;;10.83;63.09;99862.13;233952;1199;145650;-60
2021/09/07 01:11:24;;;;;;;23.70;10.60;;;;;;;10.79;62.99;99864.64;233873;1198;139389;-64
2021/09/07 01:16:28;;;;;;;19.90;11.00;;;;;;;10.74;62.86;99859.75;234062;1196;138841;-61
2021/09/07 01:21:31;;;;;;;22.20;11.00;;;;;;;10.69;63.41;99855.56;233277;1198;140458;-62
2021/09/07 01:26:34;;;;;;;20.50;10.80;;;;;;;10.67;63.49;99850.55;234018;1199;139266;-63
2021/09/07 01:31:37;;;;;;;22.60;10.90;;;;;;;10.61;63.32;99849.20;234134;1198;139881;-62
2021/09/07 01:36:40;;;;;;;18.50;9.00;;;;;;;10.55;63.09;99850.08;234117;1198;139430;-64
2021/09/07 01:41:43;;;;;;;19.70;9.00;;;;;;;10.56;63.18;99844.83;234067;1199;139111;-61
2021/09/07 01:46:47;;;;;;;14.60;9.60;;;;;;;10.56;63.23;99846.65;234241;1198;141326;-61
2021/09/07 01:51:51;;;;;;;13.80;8.50;;;;;;;10.53;63.15;99844.85;234025;1198;138781;-63
2021/09/07 01:56:54;;;;;;;18.40;9.60;;;;;;;10.45;63.16;99843.98;234058;1199;140282;-64
2021/09/07 02:02:01;;;;;;;15.90;9.10;;;;;;;10.38;63.22;99842.36;234077;1201;140479;-61
2021/09/07 02:07:05;;;;;;;13.70;9.00;;;;;;;10.36;63.58;99845.84;233803;1199;151034;-61
2021/09/07 02:12:08;;;;;;;16.90;9.30;;;;;;;10.30;63.56;99848.80;233900;1198;141011;-63
2021/09/07 02:17:12;;;;;;;16.30;9.40;;;;;;;10.21;63.41;99846.69;233954;1200;138773;-65
2021/09/07 02:22:16;;;;;;;15.90;9.40;;;;;;;10.18;63.66;99837.80;233967;1201;139687;-68
2021/09/07 02:27:19;;;;;;;15.20;8.70;;;;;;;10.19;63.60;99835.79;233983;1200;139564;-64
2021/09/07 02:32:23;;;;;;;15.90;9.30;;;;;;;10.19;63.78;99836.15;233978;1201;138980;-61
2021/09/07 02:37:27;;;;;;;16.70;9.10;;;;;;;10.19;63.87;99835.95;233886;1200;139304;-62
2021/09/07 02:42:30;;;;;;;14.80;9.30;;;;;;;10.20;63.95;99837.33;234097;1198;138609;-62
2021/09/07 02:47:33;;;;;;;21.70;9.90;;;;;;;10.22;64.02;99834.77;234147;1198;138387;-66
2021/09/07 02:52:37;;;;;;;16.20;9.40;;;;;;;10.22;64.16;99836.55;234047;1199;139469;-63
2021/09/07 02:57:41;;;;;;;17.30;9.50;;;;;;;10.24;64.12;99833.98;234097;1199;139008;-62
2021/09/07 03:02:44;;;;;;;16.10;9.20;;;;;;;10.26;64.25;99826.62;234071;1201;139219;-61
2021/09/07 03:07:48;;;;;;;17.40;10.30;;;;;;;10.32;64.10;99832.00;234072;1198;139575;-61
2021/09/07 03:12:54;;;;;;;20.00;9.40;;;;;;;10.35;64.10;99831.13;233950;1198;141196;-61
2021/09/07 03:17:58;;;;;;;15.10;9.60;;;;;;;10.39;64.11;99830.98;233928;1199;139871;-64
2021/09/07 03:23:02;;;;;;;16.20;9.30;;;;;;;10.41;64.56;99831.91;234240;1199;139393;-61
2021/09/07 03:28:06;;;;;;;19.00;12.50;;;;;;;10.40;64.18;99832.13;233968;1199;140084;-68
2021/09/07 03:33:09;;;;;;;20.00;12.50;;;;;;;10.46;64.77;99828.48;234107;1199;139994;-60
2021/09/07 03:38:13;;;;;;;39.60;26.00;;;;;;;10.81;65.85;99829.21;233940;1198;139387;-65
2021/09/07 03:43:17;;;;;;;19.50;11.90;;;;;;;11.03;64.98;99834.51;233707;1199;140501;-61
2021/09/07 03:48:20;;;;;;;20.70;10.40;;;;;;;11.02;64.52;99834.55;234093;1199;139265;-60
2021/09/07 03:53:27;;;;;;;20.10;11.30;;;;;;;10.98;64.36;99827.66;234286;1198;138940;-63
2021/09/07 03:58:30;;;;;;;20.60;10.10;;;;;;;10.98;64.23;99826.28;233911;1198;139116;-62
2021/09/07 04:03:34;;;;;;;18.50;9.80;;;;;;;10.90;64.31;99827.54;233903;1198;139917;-60
2021/09/07 04:08:40;;;;;;;20.00;9.90;;;;;;;10.81;64.17;99825.34;233887;1198;138702;-63
2021/09/07 04:13:44;;;;;;;21.20;9.90;;;;;;;10.72;64.21;99827.55;233862;1198;138527;-60
2021/09/07 04:18:48;;;;;;;16.60;10.00;;;;;;;10.61;64.23;99824.89;234121;1199;138626;-62
2021/09/07 04:23:52;;;;;;;43.00;28.60;;;;;;;10.53;64.17;99824.96;233871;1200;139669;-62
2021/09/07 04:28:55;;;;;;;14.40;8.60;;;;;;;10.53;64.67;99829.39;233544;1199;139907;-65
2021/09/07 04:33:58;;;;;;;16.80;9.50;;;;;;;10.53;64.73;99838.63;233715;1199;138947;-64
2021/09/07 04:39:01;;;;;;;17.00;9.20;;;;;;;10.52;64.57;99834.77;233857;1199;138893;-64
2021/09/07 04:44:04;;;;;;;19.70;9.60;;;;;;;10.51;64.87;99834.45;234149;1198;138996;-60
2021/09/07 04:49:09;;;;;;;16.20;9.70;;;;;;;10.53;65.09;99838.63;233729;1198;139281;-65
2021/09/07 04:54:12;;;;;;;17.50;9.30;;;;;;;10.52;64.97;99843.79;234093;1199;141484;-61
2021/09/07 04:59:15;;;;;;;15.60;8.80;;;;;;;10.54;65.22;99842.67;233764;1199;139576;-65
2021/09/07 05:04:18;;;;;;;14.50;9.00;;;;;;;10.54;65.08;99843.19;234107;1199;139791;-61
2021/09/07 05:09:21;;;;;;;15.50;9.70;;;;;;;10.58;65.49;99844.20;234090;1198;139711;-61
2021/09/07 05:14:24;;;;;;;18.00;9.90;;;;;;;10.67;65.45;99840.94;233700;1200;139549;-57
2021/09/07 05:19:27;;;;;;;19.00;10.20;;;;;;;10.76;65.47;99840.86;233990;1200;139183;-61
2021/09/07 05:24:30;;;;;;;18.60;10.90;;;;;;;10.85;65.47;99845.70;233512;1199;141001;-62
2021/09/07 05:29:33;;;;;;;20.60;11.20;;;;;;;10.97;65.86;99845.29;234235;1199;139814;-65
2021/09/07 05:34:38;;;;;;;27.40;11.70;;;;;;;11.07;65.50;99831.98;234026;1199;139112;-59
2021/09/07 05:39:41;;;;;;;23.60;11.10;;;;;;;11.16;65.66;99832.27;234111;1188;139811;-58
2021/09/07 05:44:44;;;;;;;27.70;11.70;;;;;;;11.24;65.76;99842.33;233981;1199;139666;-62
2021/09/07 05:49:48;;;;;;;22.40;12.20;;;;;;;11.36;65.67;99841.52;234077;1199;141937;-60
2021/09/07 05:54:51;;;;;;;23.10;12.10;;;;;;;11.49;65.89;99841.89;234105;1198;139825;-60
2021/09/07 05:59:55;;;;;;;20.90;12.40;;;;;;;11.62;65.37;99838.73;234165;1198;139180;-64
2021/09/07 06:04:58;;;;;;;25.10;12.20;;;;;;;11.73;65.66;99835.80;234206;1199;138816;-62
2021/09/07 06:10:02;;;;;;;25.00;13.50;;;;;;;11.80;65.90;99834.88;234041;1199;139713;-62
2021/09/07 06:15:07;;;;;;;25.00;13.40;;;;;;;11.87;65.56;99832.63;233879;1199;139877;-62
2021/09/07 06:20:10;;;;;;;32.50;15.70;;;;;;;11.96;65.70;99832.66;233910;1199;138942;-61
2021/09/07 06:25:13;;;;;;;34.60;16.40;;;;;;;12.05;65.64;99837.48;233819;1198;138736;-60
2021/09/07 06:30:17;;;;;;;39.50;17.00;;;;;;;12.17;65.69;99839.48;233883;1199;140812;-62
2021/09/07 06:35:20;;;;;;;46.60;19.50;;;;;;;12.31;65.83;99837.45;234237;1199;140141;-62
2021/09/07 06:40:23;;;;;;;41.90;17.50;;;;;;;12.53;65.81;99846.89;234052;1200;140335;-62
2021/09/07 06:45:26;;;;;;;43.80;18.40;;;;;;;12.70;65.84;99850.16;234039;1199;139148;-60
2021/09/07 06:50:29;;;;;;;38.60;17.90;;;;;;;12.82;65.75;99850.04;234063;1199;139004;-60
2021/09/07 06:55:32;;;;;;;42.80;18.50;;;;;;;12.93;65.36;99846.86;234023;1198;139172;-63
2021/09/07 07:00:35;;;;;;;40.40;17.70;;;;;;;13.00;65.46;99841.81;234184;1198;138812;-59
2021/09/07 07:05:38;;;;;;;37.30;17.10;;;;;;;13.04;65.41;99841.77;234209;1199;139665;-58
2021/09/07 07:10:42;;;;;;;38.00;16.00;;;;;;;13.14;65.41;99838.70;234057;1200;140021;-61
2021/09/07 07:15:47;;;;;;;43.10;17.30;;;;;;;13.29;65.41;99842.84;234123;1198;141050;-57
2021/09/07 07:20:50;;;;;;;40.70;17.30;;;;;;;13.40;65.56;99840.20;234142;1198;138999;-60
2021/09/07 07:25:54;;;;;;;39.80;16.30;;;;;;;13.52;65.41;99847.33;234056;1198;138847;-63
2021/09/07 07:30:57;;;;;;;42.10;16.80;;;;;;;13.62;65.57;99851.16;234017;1200;139017;-61
2021/09/07 07:36:00;;;;;;;47.60;16.90;;;;;;;13.74;65.68;99845.75;233567;1195;140461;-62
2021/09/07 07:41:07;;;;;;;44.50;14.80;;;;;;;13.90;65.71;99846.20;233522;1198;140026;-61
2021/09/07 07:46:11;;;;;;;20.10;10.90;;;;;;;14.05;65.55;99839.00;233920;1200;140017;-59
2021/09/07 07:51:15;;;;;;;55.50;28.30;;;;;;;14.56;67.58;99850.69;234014;1200;140408;-60
2021/09/07 07:56:18;;;;;;;59.60;34.20;;;;;;;15.30;67.90;99847.41;233986;1198;139140;-60
2021/09/07 08:01:22;;;;;;;47.70;22.70;;;;;;;15.80;67.17;99850.22;234021;1199;138934;-61
2021/09/07 08:06:25;;;;;;;63.50;33.50;;;;;;;16.15;66.37;99851.42;233990;1198;139212;-61
2021/09/07 08:11:28;;;;;;;45.60;24.40;;;;;;;16.29;65.75;99850.80;234013;1196;139399;-61
2021/09/07 08:16:32;;;;;;;32.20;12.70;;;;;;;16.54;65.64;99852.89;233937;1198;139569;-62
2021/09/07 08:21:35;;;;;;;41.60;19.50;;;;;;;16.70;64.67;99856.60;234067;1199;139831;-61
2021/09/07 08:26:38;;;;;;;57.90;21.40;;;;;;;16.90;64.58;99861.21;234041;1199;139932;-62
2021/09/07 08:31:41;;;;;;;32.10;13.50;;;;;;;17.07;64.44;99861.01;233945;1198;140568;-61
2021/09/07 08:36:44;;;;;;;26.60;12.00;;;;;;;17.19;63.78;99863.28;233925;1199;139841;-59
2021/09/07 08:41:47;;;;;;;21.10;10.20;;;;;;;17.30;63.29;99866.02;233970;1199;138848;-59
2021/09/07 08:46:51;;;;;;;15.70;8.70;;;;;;;17.39;62.89;99864.11;234026;1199;139050;-58
2021/09/07 08:51:54;;;;;;;30.80;12.00;;;;;;;17.50;62.85;99860.20;233974;1200;139217;-60
2021/09/07 08:56:57;;;;;;;18.90;8.50;;;;;;;17.60;62.65;99859.21;233468;1199;139795;-63
2021/09/07 09:02:13;;;;;;;18.90;10.80;;;;;;;17.65;62.33;99863.13;233553;1200;139282;-62
2021/09/07 09:07:22;;;;;;;16.80;8.80;;;;;;;17.70;62.27;99864.02;232841;1199;139770;-62
2021/09/07 09:12:31;;;;;;;16.40;8.00;;;;;;;17.76;61.85;99866.24;233725;1199;139689;-61
2021/09/07 09:17:34;;;;;;;16.70;8.20;;;;;;;17.84;61.39;99862.80;234050;1199;138873;-61
2021/09/07 09:22:59;;;;;;;15.60;8.30;;;;;;;17.91;61.17;99862.39;233860;1199;139584;-59
2021/09/07 09:28:06;;;;;;;13.10;7.40;;;;;;;17.97;61.12;99853.84;234003;1199;139551;-59
2021/09/07 09:33:15;;;;;;;17.40;7.80;;;;;;;18.00;60.82;99848.73;233909;1201;139161;-60
2021/09/07 09:38:19;;;;;;;53.70;39.40;;;;;;;18.06;60.75;99846.32;233897;1200;139019;-60
2021/09/07 09:43:28;;;;;;;15.10;10.30;;;;;;;18.10;60.45;99844.58;233460;1200;139684;-60
2021/09/07 09:48:31;;;;;;;22.60;13.10;;;;;;;18.17;60.67;99843.80;234052;1198;138895;-65
2021/09/07 09:53:35;;;;;;;15.30;7.80;;;;;;;18.23;60.69;99838.65;234141;1198;140982;-61
2021/09/07 09:58:38;;;;;;;20.10;8.70;;;;;;;18.33;60.50;99837.77;234001;1201;141930;-60
2021/09/07 10:03:44;;;;;;;15.80;7.50;;;;;;;18.43;60.29;99837.88;233404;1199;139035;-60
2021/09/07 10:08:50;;;;;;;16.80;7.40;;;;;;;18.52;60.34;99840.73;233935;1200;139249;-60
2021/09/07 10:13:58;;;;;;;20.20;8.30;;;;;;;18.62;60.35;99833.95;233608;1199;139704;-60
2021/09/07 10:19:16;;;;;;;16.30;7.90;;;;;;;18.75;60.42;99827.58;233808;1197;139098;-59
2021/09/07 10:24:39;;;;;;;17.90;8.20;;;;;;;18.87;60.50;99824.71;233988;1199;140354;-60
2021/09/07 10:29:43;;;;;;;15.90;8.90;;;;;;;19.04;60.60;99821.84;234125;1199;139257;-62
2021/09/07 10:35:02;;;;;;;;;;;;;;;19.26;60.33;99815.87;234002;1200;139447;-61
2021/09/07 10:40:39;;;;;;;14.30;7.70;;;;;;;19.48;60.15;99812.72;234012;1201;125588;-61
2021/09/07 10:45:42;;;;;;;15.60;8.20;;;;;;;19.67;59.67;99808.75;233850;1200;138958;-60
2021/09/07 10:51:03;;;;;;;10.40;7.40;;;;;;;19.79;59.22;99812.05;233864;1201;138535;-60
2021/09/07 10:56:40;;;;;;;13.10;7.20;;;;;;;19.87;58.93;99805.33;233959;1199;139661;-61
2021/09/07 11:01:43;;;;;;;14.00;7.70;;;;;;;19.99;58.79;99806.06;233816;1198;138583;-60
2021/09/07 11:06:46;;;;;;;12.80;8.00;;;;;;;20.06;58.43;99801.11;233937;1198;138977;-61
2021/09/07 11:11:50;;;;;;;12.20;7.40;;;;;;;20.17;58.28;99800.52;233943;1199;138918;-58
2021/09/07 11:16:53;;;;;;;13.90;7.60;;;;;;;20.35;58.04;99797.23;234009;1199;139224;-63
2021/09/07 11:21:56;;;;;;;90.20;61.60;;;;;;;20.52;57.45;99791.08;234027;1199;139113;-61
2021/09/07 11:26:59;;;;;;;14.20;8.10;;;;;;;20.65;56.74;99799.08;234002;1198;140008;-60
2021/09/07 11:32:22;;;;;;;10.60;7.10;;;;;;;20.77;56.36;99792.55;233802;1201;139603;-60
2021/09/07 11:37:25;;;;;;;12.00;7.40;;;;;;;20.89;56.00;99790.70;233820;1200;138547;-60
2021/09/07 11:42:28;;;;;;;13.20;7.60;;;;;;;21.08;55.69;99781.41;233592;1198;138698;-61
2021/09/07 11:47:31;;;;;;;11.30;7.30;;;;;;;21.29;55.42;99778.34;233933;1199;139474;-59
2021/09/07 11:52:34;;;;;;;13.90;7.30;;;;;;;21.40;55.02;99775.30;233935;1201;139180;-62
2021/09/07 11:57:44;;;;;;;12.80;7.40;;;;;;;21.49;54.63;99773.19;233703;1201;138406;-61
2021/09/07 12:03:12;;;;;;;11.70;7.00;;;;;;;21.54;54.39;99771.44;234040;1198;139314;-59
2021/09/07 12:08:16;;;;;;;14.50;7.50;;;;;;;21.64;54.48;99761.85;233954;1199;139191;-60
2021/09/07 12:13:21;;;;;;;11.10;7.40;;;;;;;21.84;54.52;99756.46;234076;1198;140149;-61
2021/09/07 12:18:29;;;;;;;10.20;7.00;;;;;;;21.97;54.13;99757.81;233977;1198;138961;-58
2021/09/07 12:23:34;;;;;;;10.60;8.30;;;;;;;22.17;53.88;99757.33;233948;1201;139086;-61
2021/09/07 12:28:39;;;;;;;15.20;8.30;;;;;;;22.44;53.47;99753.02;233110;1201;138715;-60
2021/09/07 12:33:49;;;;;;;11.10;7.40;;;;;;;22.57;53.03;99753.23;233986;1199;138964;-62
2021/09/07 12:38:52;;;;;;;12.40;7.50;;;;;;;22.62;52.72;99745.05;233606;1199;139217;-60
2021/09/07 12:43:55;;;;;;;11.10;7.30;;;;;;;22.66;52.51;99744.48;233967;1201;138735;-61
2021/09/07 12:48:58;;;;;;;10.70;7.90;;;;;;;22.74;52.23;99745.32;233308;1201;139121;-61
2021/09/07 12:54:03;;;;;;;9.80;7.60;;;;;;;22.82;51.87;99741.98;232900;1201;138997;-60
2021/09/07 12:59:08;;;;;;;12.30;8.10;;;;;;;22.84;51.62;99732.71;234116;1198;138723;-60
2021/09/07 13:04:11;;;;;;;14.20;9.10;;;;;;;22.83;51.60;99728.15;233863;1199;138797;-60
2021/09/07 13:09:14;;;;;;;11.10;7.80;;;;;;;22.76;51.44;99723.48;233942;1199;139453;-60
2021/09/07 13:14:17;;;;;;;49.50;37.10;;;;;;;22.93;51.69;99716.11;234010;1198;139044;-60
2021/09/07 13:19:20;;;;;;;14.80;10.40;;;;;;;23.02;51.40;99722.63;233957;1198;139495;-61
2021/09/07 13:24:34;;;;;;;11.40;7.90;;;;;;;22.98;51.14;99718.33;233970;1201;140743;-64
2021/09/07 13:29:37;;;;;;;14.30;7.40;;;;;;;23.06;51.15;99711.89;234118;1199;141050;-60
2021/09/07 13:34:40;;;;;;;13.50;7.90;;;;;;;23.15;51.08;99706.38;233870;1201;138918;-61
2021/09/07 13:39:48;;;;;;;118.10;84.30;;;;;;;23.31;50.75;99706.88;233865;1201;140403;-61
2021/09/07 13:44:52;;;;;;;15.70;11.20;;;;;;;23.46;50.55;99703.45;233716;1198;138927;-61
2021/09/07 13:49:55;;;;;;;13.10;10.50;;;;;;;23.61;49.92;99696.65;233918;1198;140228;-59
2021/09/07 13:54:57;;;;;;;11.10;7.30;;;;;;;23.75;49.40;99697.15;233956;1199;139190;-60
2021/09/07 14:00:02;;;;;;;11.90;6.10;;;;;;;23.86;49.00;99694.58;234011;1200;138828;-61
2021/09/07 14:05:14;;;;;;;9.80;6.20;;;;;;;23.91;48.39;99694.80;234064;1201;138877;-59
2021/09/07 14:10:17;;;;;;;9.40;6.00;;;;;;;23.82;47.95;99689.53;233998;1199;141762;-60
2021/09/07 14:15:21;;;;;;;9.40;6.30;;;;;;;23.63;47.63;99687.63;233946;1198;138661;-58
2021/09/07 14:20:24;;;;;;;8.40;6.90;;;;;;;23.45;47.59;99689.91;233989;1199;139598;-60
2021/09/07 14:25:27;;;;;;;12.10;6.90;;;;;;;23.26;47.43;99687.86;233975;1199;138505;-58
2021/09/07 14:30:30;;;;;;;12.80;7.00;;;;;;;23.11;47.39;99688.17;234025;1199;139037;-60
2021/09/07 14:35:33;;;;;;;8.30;6.10;;;;;;;22.98;47.33;99687.71;234115;1199;139040;-62
2021/09/07 14:40:36;;;;;;;8.70;6.80;;;;;;;22.87;47.22;99689.00;234057;1198;139582;-60
2021/09/07 14:45:39;;;;;;;17.50;7.10;;;;;;;22.76;47.04;99686.67;233398;1200;138883;-59
2021/09/07 14:50:43;;;;;;;16.10;6.80;;;;;;;22.65;47.14;99697.05;233924;1200;138824;-57
2021/09/07 14:55:47;;;;;;;9.60;6.60;;;;;;;22.53;47.12;99697.60;234069;1198;139234;-57
2021/09/07 15:00:50;;;;;;;12.00;6.60;;;;;;;22.42;47.20;99700.98;234087;1198;138346;-61
2021/09/07 15:05:53;;;;;;;10.20;6.50;;;;;;;22.34;47.50;99703.77;234090;1199;139089;-60
2021/09/07 15:10:56;;;;;;;29.20;23.40;;;;;;;22.27;47.53;99703.27;233655;1199;141126;-62
2021/09/07 15:16:00;;;;;;;20.70;13.50;;;;;;;22.20;47.70;99699.41;233998;1198;139525;-59
2021/09/07 15:21:04;;;;;;;13.80;8.60;;;;;;;22.11;47.86;99691.04;234038;1195;140605;-60
2021/09/07 15:26:07;;;;;;;10.10;7.70;;;;;;;22.05;47.97;99689.73;233996;1199;140084;-59
2021/09/07 15:31:10;;;;;;;11.40;7.20;;;;;;;21.98;48.06;99686.91;234035;1199;139825;-60
2021/09/07 15:36:13;;;;;;;9.60;7.00;;;;;;;21.93;48.20;99687.94;233993;1199;139755;-59
2021/09/07 15:41:18;;;;;;;32.30;22.70;;;;;;;21.88;48.25;99686.06;234088;1199;138800;-60
2021/09/07 15:46:21;;;;;;;15.30;9.00;;;;;;;21.84;48.32;99685.61;233957;1199;139785;-62
2021/09/07 15:51:24;;;;;;;9.90;6.70;;;;;;;21.78;48.39;99691.45;233981;1199;139450;-63
2021/09/07 15:56:28;;;;;;;12.50;7.50;;;;;;;21.74;48.49;99688.64;233607;1200;139268;-60
2021/09/07 16:01:31;;;;;;;11.80;7.50;;;;;;;21.69;48.59;99691.59;234087;1199;139908;-62
2021/09/07 16:06:34;;;;;;;28.50;22.70;;;;;;;21.65;48.79;99686.20;233963;1199;140932;-62
2021/09/07 16:11:37;;;;;;;33.50;23.90;;;;;;;21.62;48.96;99686.45;233939;1200;139026;-60
2021/09/07 16:16:40;;;;;;;33.00;22.70;;;;;;;21.60;48.99;99685.12;234003;1199;139684;-58
2021/09/07 16:21:43;;;;;;;15.70;10.10;;;;;;;21.54;49.03;99684.93;234042;1198;139556;-60
2021/09/07 16:26:47;;;;;;;13.20;8.30;;;;;;;21.50;49.14;99681.92;234016;1198;139302;-60
2021/09/07 16:31:50;;;;;;;116.50;88.80;;;;;;;21.44;49.26;99682.27;234026;1200;140089;-61
2021/09/07 16:36:55;;;;;;;306.00;215.60;;;;;;;21.42;49.24;99681.45;233916;1198;140093;-58
2021/09/07 16:41:58;;;;;;;37.30;23.30;;;;;;;21.38;49.49;99681.77;233985;1198;139203;-63
2021/09/07 16:47:02;;;;;;;25.20;13.60;;;;;;;21.32;49.62;99683.23;233983;1198;139826;-64
2021/09/07 16:52:06;;;;;;;25.10;14.60;;;;;;;21.27;49.81;99684.69;233647;1199;138949;-64
2021/09/07 16:57:09;;;;;;;20.90;13.00;;;;;;;21.18;50.04;99679.90;234032;1198;139885;-62
2021/09/07 17:02:13;;;;;;;15.60;10.10;;;;;;;21.10;50.24;99680.39;234096;1198;140167;-62
2021/09/07 17:07:26;;;;;;;16.20;8.30;;;;;;;21.02;50.34;99682.67;233955;1201;139551;-64
2021/09/07 17:12:32;;;;;;;16.30;8.30;;;;;;;20.96;50.38;99687.80;233366;1199;139603;-64
2021/09/07 17:17:35;;;;;;;13.30;7.30;;;;;;;20.89;50.51;99687.17;234012;1198;139372;-65
2021/09/07 17:22:38;;;;;;;12.50;7.70;;;;;;;20.82;50.68;99694.16;234092;1198;138612;-64
2021/09/07 17:27:43;;;;;;;24.70;14.20;;;;;;;20.75;50.77;99700.23;234015;1198;139426;-64
2021/09/07 17:43:29;;;;;;;15.80;8.10;;;;;;;20.56;51.26;99718.09;233637;1198;138687;-67
2021/09/07 17:48:33;;;;;;;14.00;8.70;;;;;;;20.49;51.38;99717.42;233385;1199;138901;-67
2021/09/07 17:53:36;;;;;;;14.80;8.70;;;;;;;20.39;51.86;99720.11;234029;1200;139224;-69
2021/09/07 17:58:40;;;;;;;18.50;9.70;;;;;;;20.24;52.17;99721.34;233986;1199;138536;-66
2021/09/07 18:03:43;;;;;;;18.00;10.20;;;;;;;20.05;52.39;99734.40;233773;1199;138958;-67
2021/09/07 18:08:47;;;;;;;24.80;10.00;;;;;;;19.89;52.93;99736.23;234038;1198;138907;-67
2021/09/07 18:13:50;;;;;;;17.70;9.60;;;;;;;19.75;53.31;99732.83;233994;1199;139176;-68
2021/09/07 18:18:53;;;;;;;17.00;9.30;;;;;;;19.66;53.74;99738.83;233895;1200;139567;-68
2021/09/07 18:23:56;;;;;;;869.40;680.20;;;;;;;19.57;54.16;99736.09;233990;1201;139305;-66
2021/09/07 18:28:59;;;;;;;68.20;49.90;;;;;;;19.49;54.56;99744.77;234066;1199;139173;-63
2021/09/07 18:34:07;;;;;;;19.90;13.40;;;;;;;19.30;54.54;99752.52;234173;1198;139672;-60
2021/09/07 18:39:10;;;;;;;23.30;12.40;;;;;;;19.08;54.58;99753.01;234098;1199;139079;-62
2021/09/07 18:44:14;;;;;;;25.00;10.90;;;;;;;18.90;54.99;99748.30;233738;1199;139157;-61
2021/09/07 18:49:17;;;;;;;17.50;10.70;;;;;;;18.71;55.24;99753.07;233766;1199;139269;-63
2021/09/07 18:54:20;;;;;;;20.50;10.60;;;;;;;18.54;55.54;99757.34;234121;1198;139300;-66
2021/09/07 18:59:23;;;;;;;17.00;10.50;;;;;;;18.38;55.96;99759.64;234159;1199;138914;-67
2021/09/07 19:04:30;;;;;;;;;;;;;;;18.29;56.19;99764.31;234037;1199;139523;-66
2021/09/07 19:09:33;;;;;;;25.80;12.20;;;;;;;18.21;56.59;99772.54;234137;1198;125459;-61
2021/09/07 19:14:37;;;;;;;24.40;11.60;;;;;;;18.13;56.80;99769.95;233993;1200;138804;-65
2021/09/07 19:19:40;;;;;;;34.20;13.70;;;;;;;18.05;57.24;99771.63;233983;1199;138875;-63
2021/09/07 19:24:43;;;;;;;33.90;13.10;;;;;;;17.96;57.38;99772.92;233699;1200;138503;-67
2021/09/07 19:29:46;;;;;;;28.30;13.30;;;;;;;17.86;57.75;99765.15;234089;1199;138561;-66
2021/09/07 19:35:07;;;;;;;33.50;13.80;;;;;;;17.75;57.80;99765.45;234039;1199;139338;-62
2021/09/07 19:40:10;;;;;;;30.40;14.00;;;;;;;17.63;58.25;99763.16;234011;1199;138723;-62
2021/09/07 19:45:13;;;;;;;28.80;13.00;;;;;;;17.52;58.51;99763.18;233728;1198;139192;-67
2021/09/07 19:50:18;;;;;;;24.20;13.10;;;;;;;17.41;58.79;99769.02;234060;1199;139079;-61
2021/09/07 19:55:21;;;;;;;34.60;15.60;;;;;;;17.35;58.97;99772.91;234092;1199;139056;-59
2021/09/07 20:00:24;;;;;;;29.00;14.10;;;;;;;17.31;59.43;99780.09;234121;1198;139336;-60
2021/09/07 20:05:27;;;;;;;39.60;15.90;;;;;;;17.36;59.93;99775.86;234004;1198;139352;-60
2021/09/07 20:10:30;;;;;;;36.20;16.70;;;;;;;17.44;59.90;99772.36;234101;1198;138745;-61
2021/09/07 20:15:34;;;;;;;47.50;21.50;;;;;;;17.48;59.89;99778.52;233942;1199;138977;-62
2021/09/07 20:20:37;;;;;;;39.90;21.40;;;;;;;17.40;59.89;99777.05;234099;1196;138819;-63
2021/09/07 20:25:40;;;;;;;35.60;18.60;;;;;;;17.30;59.95;99783.89;233783;1199;138571;-66
2021/09/07 20:30:43;;;;;;;29.60;17.00;;;;;;;17.19;60.19;99792.63;233433;1199;140103;-64
2021/09/07 20:35:46;;;;;;;33.00;18.80;;;;;;;17.13;60.25;99791.68;233929;1199;139189;-62
2021/09/07 20:40:49;;;;;;;38.30;18.70;;;;;;;17.07;60.47;99784.25;234063;1199;139653;-61
2021/09/07 20:45:52;;;;;;;38.10;18.80;;;;;;;17.02;60.62;99788.21;234152;1198;138935;-61
2021/09/07 20:50:55;;;;;;;33.90;16.90;;;;;;;16.94;60.89;99796.52;234115;1198;138620;-63
2021/09/07 20:55:58;;;;;;;33.70;18.20;;;;;;;16.84;60.88;99803.40;233839;1196;139174;-63
2021/09/07 21:01:01;;;;;;;34.70;17.60;;;;;;;16.75;60.97;99806.38;233718;1199;139053;-66
2021/09/07 21:06:05;;;;;;;31.20;17.60;;;;;;;16.65;61.06;99807.61;234227;1198;139180;-61
2021/09/07 21:11:08;;;;;;;29.80;17.10;;;;;;;16.55;61.20;99805.73;234111;1199;139497;-63
2021/09/07 21:16:11;;;;;;;32.20;17.30;;;;;;;16.48;61.49;99813.05;234049;1199;139152;-63
2021/09/07 21:21:14;;;;;;;29.50;17.60;;;;;;;16.44;61.72;99810.60;234077;1199;139957;-61
2021/09/07 21:26:17;;;;;;;31.20;17.80;;;;;;;16.41;61.81;99819.27;234116;1198;140670;-60
2021/09/07 21:31:20;;;;;;;33.70;17.10;;;;;;;16.37;61.89;99818.71;234021;1198;139159;-60
2021/09/07 21:36:23;;;;;;;30.70;16.90;;;;;;;16.29;62.00;99818.51;233809;1200;139779;-61
2021/09/07 21:41:27;;;;;;;26.80;15.40;;;;;;;16.22;62.10;99817.11;234051;1199;139866;-63
2021/09/07 21:46:30;;;;;;;28.30;15.70;;;;;;;16.17;62.25;99812.60;234162;1198;139799;-63
2021/09/07 21:51:33;;;;;;;28.80;16.30;;;;;;;16.16;62.32;99822.39;234021;1199;139713;-63
2021/09/07 21:56:36;;;;;;;25.70;15.40;;;;;;;16.12;62.72;99818.16;234075;1199;138215;-61
2021/09/07 22:01:40;;;;;;;25.00;15.30;;;;;;;16.08;62.87;99820.40;233790;1198;140051;-63
2021/09/07 22:06:45;;;;;;;28.00;17.10;;;;;;;16.06;62.93;99824.31;233631;1201;139442;-61
2021/09/07 22:11:48;;;;;;;35.40;17.00;;;;;;;16.02;62.97;99824.08;234042;1199;139124;-62
2021/09/07 22:16:51;;;;;;;29.70;18.20;;;;;;;15.96;62.93;99824.16;233956;1199;141315;-63
2021/09/07 22:21:54;;;;;;;34.90;18.20;;;;;;;15.88;63.18;99818.69;233596;1200;140975;-66
2021/09/07 22:26:58;;;;;;;32.70;18.70;;;;;;;15.85;63.21;99821.53;234046;1199;139514;-65
2021/09/07 22:32:02;;;;;;;36.60;20.10;;;;;;;15.83;63.17;99818.67;233655;1200;140005;-64
2021/09/07 22:37:06;;;;;;;32.20;18.50;;;;;;;15.79;63.29;99817.52;232515;1200;138998;-62
2021/09/07 22:42:14;;;;;;;31.20;19.20;;;;;;;15.72;63.31;99822.29;232228;1199;139423;-64
2021/09/07 22:47:20;;;;;;;31.10;19.90;;;;;;;15.62;63.56;99823.87;232409;1198;139581;-62
2021/09/07 22:52:24;;;;;;;28.80;18.50;;;;;;;15.52;63.61;99823.70;233044;1199;138633;-68
2021/09/07 22:57:30;;;;;;;31.80;17.50;;;;;;;15.47;63.91;99824.02;233923;1199;139382;-66
2021/09/07 23:02:35;;;;;;;30.90;20.00;;;;;;;15.44;63.99;99826.17;232928;1199;139776;-62